sensor_id;sensor_type;location;lat;lon;timestamp;P1;durP1;ratioP1;P2;durP2;ratioP2
64426;SDS011;50772;51.482;-0.580;2023-07-08T00:02:35;4.53;;;3.92;;
64426;SDS011;50772;51.482;-0.580;2023-07-08T00:05:00;4.28;;;3.97;;
64426;SDS011;50772;51.482;-0.580;2023-07-08T00:07:32;4.45;;;4.10;;
64426;SDS011;50772;51.482;-0.580;2023-07-08T00:09:57;4.47;;;4.10;;
64426;SDS011;50772;51.482;-0.580;2023-07-08T00:12:22;5.90;;;3.77;;
64426;SDS011;50772;51.482;-0.580;2023-07-08T00:14:48;4.50;;;4.10;;
64426;SDS011;50772;51.482;-0.580;2023-07-08T00:17:13;4.45;;;3.80;;
64426;SDS011;50772;51.482;-0.580;2023-07-08T00:19:41;4.70;;;3.88;;
64426;SDS011;50772;51.482;-0.580;2023-07-08T00:22:11;4.80;;;4.40;;
64426;SDS011;50772;51.482;-0.580;2023-07-08T00:24:37;4.47;;;4.18;;
64426;SDS011;50772;51.482;-0.580;2023-07-08T00:27:03;4.55;;;4.15;;
64426;SDS011;50772;51.482;-0.580;2023-07-08T00:29:28;6.15;;;4.25;;
64426;SDS011;50772;51.482;-0.580;2023-07-08T00:31:55;5.28;;;4.30;;
64426;SDS011;50772;51.482;-0.580;2023-07-08T00:34:20;4.45;;;4.15;;
64426;SDS011;50772;51.482;-0.580;2023-07-08T00:36:45;4.32;;;3.78;;
64426;SDS011;50772;51.482;-0.580;2023-07-08T00:39:14;4.78;;;4.40;;
64426;SDS011;50772;51.482;-0.580;2023-07-08T00:41:39;4.55;;;4.15;;
64426;SDS011;50772;51.482;-0.580;2023-07-08T00:44:10;8.35;;;4.72;;
64426;SDS011;50772;51.482;-0.580;2023-07-08T00:46:42;4.28;;;3.95;;
64426;SDS011;50772;51.482;-0.580;2023-07-08T00:51:53;4.43;;;4.13;;
64426;SDS011;50772;51.482;-0.580;2023-07-08T00:54:21;5.82;;;4.10;;
64426;SDS011;50772;51.482;-0.580;2023-07-08T00:56:59;6.15;;;4.32;;
64426;SDS011;50772;51.482;-0.580;2023-07-08T00:59:34;4.90;;;4.50;;
64426;SDS011;50772;51.482;-0.580;2023-07-08T01:02:02;4.20;;;3.90;;
64426;SDS011;50772;51.482;-0.580;2023-07-08T01:04:32;7.05;;;4.70;;
64426;SDS011;50772;51.482;-0.580;2023-07-08T01:06:59;4.78;;;4.25;;
64426;SDS011;50772;51.482;-0.580;2023-07-08T01:09:30;4.63;;;4.23;;
64426;SDS011;50772;51.482;-0.580;2023-07-08T01:11:56;8.70;;;3.90;;
64426;SDS011;50772;51.482;-0.580;2023-07-08T01:14:23;4.55;;;4.22;;
64426;SDS011;50772;51.482;-0.580;2023-07-08T01:16:50;4.90;;;4.45;;
64426;SDS011;50772;51.482;-0.580;2023-07-08T01:19:17;5.13;;;3.83;;
64426;SDS011;50772;51.482;-0.580;2023-07-08T01:24:12;4.63;;;4.22;;
64426;SDS011;50772;51.482;-0.580;2023-07-08T01:26:40;6.60;;;4.22;;
64426;SDS011;50772;51.482;-0.580;2023-07-08T01:29:06;4.80;;;4.43;;
64426;SDS011;50772;51.482;-0.580;2023-07-08T01:31:35;8.88;;;4.68;;
64426;SDS011;50772;51.482;-0.580;2023-07-08T01:34:04;7.95;;;4.35;;
64426;SDS011;50772;51.482;-0.580;2023-07-08T01:36:31;4.35;;;3.95;;
64426;SDS011;50772;51.482;-0.580;2023-07-08T01:38:59;8.50;;;4.35;;
64426;SDS011;50772;51.482;-0.580;2023-07-08T01:41:24;6.75;;;4.20;;
64426;SDS011;50772;51.482;-0.580;2023-07-08T01:43:50;5.22;;;4.13;;
64426;SDS011;50772;51.482;-0.580;2023-07-08T01:46:17;4.80;;;4.50;;
64426;SDS011;50772;51.482;-0.580;2023-07-08T01:48:53;7.88;;;4.32;;
64426;SDS011;50772;51.482;-0.580;2023-07-08T01:51:29;4.80;;;3.97;;
64426;SDS011;50772;51.482;-0.580;2023-07-08T01:53:57;4.28;;;4.03;;
64426;SDS011;50772;51.482;-0.580;2023-07-08T01:56:23;6.95;;;4.00;;
64426;SDS011;50772;51.482;-0.580;2023-07-08T01:58:51;5.70;;;4.28;;
64426;SDS011;50772;51.482;-0.580;2023-07-08T02:01:24;12.00;;;4.47;;
64426;SDS011;50772;51.482;-0.580;2023-07-08T02:04:12;5.60;;;4.13;;
64426;SDS011;50772;51.482;-0.580;2023-07-08T02:06:41;5.38;;;4.28;;
64426;SDS011;50772;51.482;-0.580;2023-07-08T02:09:07;4.28;;;3.97;;
64426;SDS011;50772;51.482;-0.580;2023-07-08T02:11:32;8.70;;;4.72;;
64426;SDS011;50772;51.482;-0.580;2023-07-08T02:13:57;5.15;;;3.97;;
64426;SDS011;50772;51.482;-0.580;2023-07-08T02:16:25;4.47;;;4.07;;
64426;SDS011;50772;51.482;-0.580;2023-07-08T02:18:50;4.10;;;3.80;;
64426;SDS011;50772;51.482;-0.580;2023-07-08T02:21:15;4.45;;;4.15;;
64426;SDS011;50772;51.482;-0.580;2023-07-08T02:23:43;4.30;;;3.97;;
64426;SDS011;50772;51.482;-0.580;2023-07-08T02:26:11;6.80;;;4.15;;
64426;SDS011;50772;51.482;-0.580;2023-07-08T02:28:36;4.55;;;4.22;;
64426;SDS011;50772;51.482;-0.580;2023-07-08T02:31:02;5.25;;;4.40;;
64426;SDS011;50772;51.482;-0.580;2023-07-08T02:33:27;8.35;;;4.80;;
64426;SDS011;50772;51.482;-0.580;2023-07-08T02:35:59;4.70;;;4.38;;
64426;SDS011;50772;51.482;-0.580;2023-07-08T02:38:27;5.15;;;4.70;;
64426;SDS011;50772;51.482;-0.580;2023-07-08T02:40:53;7.65;;;4.63;;
64426;SDS011;50772;51.482;-0.580;2023-07-08T02:43:18;5.13;;;4.55;;
64426;SDS011;50772;51.482;-0.580;2023-07-08T02:45:43;6.90;;;4.40;;
64426;SDS011;50772;51.482;-0.580;2023-07-08T02:48:08;5.22;;;4.82;;
64426;SDS011;50772;51.482;-0.580;2023-07-08T02:50:34;5.97;;;4.70;;
64426;SDS011;50772;51.482;-0.580;2023-07-08T02:53:02;7.45;;;4.63;;
64426;SDS011;50772;51.482;-0.580;2023-07-08T02:55:27;5.25;;;4.85;;
64426;SDS011;50772;51.482;-0.580;2023-07-08T02:57:53;5.00;;;4.70;;
64426;SDS011;50772;51.482;-0.580;2023-07-08T03:00:18;5.05;;;4.65;;
64426;SDS011;50772;51.482;-0.580;2023-07-08T03:02:47;5.00;;;4.53;;
64426;SDS011;50772;51.482;-0.580;2023-07-08T03:05:12;6.13;;;5.10;;
64426;SDS011;50772;51.482;-0.580;2023-07-08T03:07:37;5.38;;;4.85;;
64426;SDS011;50772;51.482;-0.580;2023-07-08T03:10:03;9.25;;;4.80;;
64426;SDS011;50772;51.482;-0.580;2023-07-08T03:12:28;5.57;;;5.10;;
64426;SDS011;50772;51.482;-0.580;2023-07-08T03:14:54;6.18;;;4.47;;
64426;SDS011;50772;51.482;-0.580;2023-07-08T03:17:26;5.38;;;4.97;;
64426;SDS011;50772;51.482;-0.580;2023-07-08T03:19:52;5.70;;;5.20;;
64426;SDS011;50772;51.482;-0.580;2023-07-08T03:22:17;6.00;;;5.55;;
64426;SDS011;50772;51.482;-0.580;2023-07-08T03:24:43;6.05;;;5.53;;
64426;SDS011;50772;51.482;-0.580;2023-07-08T03:27:18;6.70;;;5.28;;
64426;SDS011;50772;51.482;-0.580;2023-07-08T03:29:44;5.95;;;5.45;;
64426;SDS011;50772;51.482;-0.580;2023-07-08T03:32:10;5.68;;;5.00;;
64426;SDS011;50772;51.482;-0.580;2023-07-08T03:34:35;5.93;;;4.60;;
64426;SDS011;50772;51.482;-0.580;2023-07-08T03:37:04;5.75;;;5.13;;
64426;SDS011;50772;51.482;-0.580;2023-07-08T03:39:29;5.85;;;4.93;;
64426;SDS011;50772;51.482;-0.580;2023-07-08T03:41:56;5.75;;;5.25;;
64426;SDS011;50772;51.482;-0.580;2023-07-08T03:44:22;6.18;;;5.40;;
64426;SDS011;50772;51.482;-0.580;2023-07-08T03:46:47;6.85;;;5.30;;
64426;SDS011;50772;51.482;-0.580;2023-07-08T03:49:14;5.65;;;5.15;;
64426;SDS011;50772;51.482;-0.580;2023-07-08T03:51:40;5.63;;;5.22;;
64426;SDS011;50772;51.482;-0.580;2023-07-08T03:54:10;5.85;;;5.35;;
64426;SDS011;50772;51.482;-0.580;2023-07-08T03:59:04;5.45;;;4.95;;
64426;SDS011;50772;51.482;-0.580;2023-07-08T04:01:29;5.72;;;5.10;;
64426;SDS011;50772;51.482;-0.580;2023-07-08T04:03:55;5.45;;;5.13;;
64426;SDS011;50772;51.482;-0.580;2023-07-08T04:06:21;6.05;;;5.28;;
64426;SDS011;50772;51.482;-0.580;2023-07-08T04:08:49;6.93;;;4.95;;
64426;SDS011;50772;51.482;-0.580;2023-07-08T04:11:21;6.72;;;5.40;;
64426;SDS011;50772;51.482;-0.580;2023-07-08T04:13:47;5.93;;;5.10;;
64426;SDS011;50772;51.482;-0.580;2023-07-08T04:16:15;5.70;;;5.20;;
64426;SDS011;50772;51.482;-0.580;2023-07-08T04:18:41;8.65;;;5.82;;
64426;SDS011;50772;51.482;-0.580;2023-07-08T04:21:13;6.30;;;5.70;;
64426;SDS011;50772;51.482;-0.580;2023-07-08T04:23:38;5.88;;;5.18;;
64426;SDS011;50772;51.482;-0.580;2023-07-08T04:26:03;5.80;;;5.30;;
64426;SDS011;50772;51.482;-0.580;2023-07-08T04:28:29;5.72;;;5.22;;
64426;SDS011;50772;51.482;-0.580;2023-07-08T04:30:54;5.63;;;5.00;;
64426;SDS011;50772;51.482;-0.580;2023-07-08T04:33:19;5.30;;;4.82;;
64426;SDS011;50772;51.482;-0.580;2023-07-08T04:35:45;9.30;;;5.55;;
64426;SDS011;50772;51.482;-0.580;2023-07-08T04:40:38;9.55;;;4.70;;
64426;SDS011;50772;51.482;-0.580;2023-07-08T04:43:06;8.07;;;4.72;;
64426;SDS011;50772;51.482;-0.580;2023-07-08T04:45:34;6.93;;;5.03;;
64426;SDS011;50772;51.482;-0.580;2023-07-08T04:47:59;5.80;;;4.90;;
64426;SDS011;50772;51.482;-0.580;2023-07-08T04:50:25;6.45;;;5.05;;
64426;SDS011;50772;51.482;-0.580;2023-07-08T04:52:50;5.53;;;4.97;;
64426;SDS011;50772;51.482;-0.580;2023-07-08T04:55:18;7.97;;;5.10;;
64426;SDS011;50772;51.482;-0.580;2023-07-08T04:57:43;5.40;;;4.90;;
64426;SDS011;50772;51.482;-0.580;2023-07-08T05:00:12;4.57;;;4.28;;
64426;SDS011;50772;51.482;-0.580;2023-07-08T05:02:40;10.93;;;4.50;;
64426;SDS011;50772;51.482;-0.580;2023-07-08T05:05:06;4.80;;;4.28;;
64426;SDS011;50772;51.482;-0.580;2023-07-08T05:07:31;5.47;;;4.70;;
64426;SDS011;50772;51.482;-0.580;2023-07-08T05:09:57;11.10;;;4.78;;
64426;SDS011;50772;51.482;-0.580;2023-07-08T05:12:22;5.97;;;4.45;;
64426;SDS011;50772;51.482;-0.580;2023-07-08T05:14:48;4.78;;;4.43;;
64426;SDS011;50772;51.482;-0.580;2023-07-08T05:17:16;4.85;;;4.55;;
64426;SDS011;50772;51.482;-0.580;2023-07-08T05:19:41;5.10;;;4.55;;
64426;SDS011;50772;51.482;-0.580;2023-07-08T05:22:15;10.13;;;4.75;;
64426;SDS011;50772;51.482;-0.580;2023-07-08T05:24:59;5.20;;;4.50;;
64426;SDS011;50772;51.482;-0.580;2023-07-08T05:27:27;5.78;;;4.63;;
64426;SDS011;50772;51.482;-0.580;2023-07-08T05:29:52;4.50;;;4.20;;
64426;SDS011;50772;51.482;-0.580;2023-07-08T05:32:18;7.18;;;4.40;;
64426;SDS011;50772;51.482;-0.580;2023-07-08T05:34:43;8.75;;;4.18;;
64426;SDS011;50772;51.482;-0.580;2023-07-08T05:37:09;4.70;;;4.35;;
64426;SDS011;50772;51.482;-0.580;2023-07-08T05:39:37;4.10;;;3.80;;
64426;SDS011;50772;51.482;-0.580;2023-07-08T05:42:02;4.20;;;3.80;;
64426;SDS011;50772;51.482;-0.580;2023-07-08T05:44:28;4.88;;;3.67;;
64426;SDS011;50772;51.482;-0.580;2023-07-08T05:46:55;5.68;;;3.55;;
64426;SDS011;50772;51.482;-0.580;2023-07-08T05:49:21;3.90;;;3.60;;
64426;SDS011;50772;51.482;-0.580;2023-07-08T05:51:46;4.05;;;3.65;;
64426;SDS011;50772;51.482;-0.580;2023-07-08T05:54:13;3.70;;;3.50;;
64426;SDS011;50772;51.482;-0.580;2023-07-08T05:56:38;5.82;;;3.30;;
64426;SDS011;50772;51.482;-0.580;2023-07-08T05:59:04;3.77;;;3.47;;
64426;SDS011;50772;51.482;-0.580;2023-07-08T06:01:29;9.32;;;3.58;;
64426;SDS011;50772;51.482;-0.580;2023-07-08T06:03:55;4.22;;;3.92;;
64426;SDS011;50772;51.482;-0.580;2023-07-08T06:06:23;5.20;;;3.60;;
64426;SDS011;50772;51.482;-0.580;2023-07-08T06:08:48;4.50;;;3.22;;
64426;SDS011;50772;51.482;-0.580;2023-07-08T06:11:13;3.65;;;3.45;;
64426;SDS011;50772;51.482;-0.580;2023-07-08T06:13:39;4.15;;;3.75;;
64426;SDS011;50772;51.482;-0.580;2023-07-08T06:16:04;3.72;;;3.15;;
64426;SDS011;50772;51.482;-0.580;2023-07-08T06:18:30;4.32;;;3.85;;
64426;SDS011;50772;51.482;-0.580;2023-07-08T06:20:56;3.95;;;3.65;;
64426;SDS011;50772;51.482;-0.580;2023-07-08T06:23:21;4.05;;;3.33;;
64426;SDS011;50772;51.482;-0.580;2023-07-08T06:25:47;3.63;;;3.35;;
64426;SDS011;50772;51.482;-0.580;2023-07-08T06:28:18;3.47;;;3.22;;
64426;SDS011;50772;51.482;-0.580;2023-07-08T06:30:43;4.43;;;2.85;;
64426;SDS011;50772;51.482;-0.580;2023-07-08T06:33:11;5.45;;;3.10;;
64426;SDS011;50772;51.482;-0.580;2023-07-08T06:35:37;3.92;;;3.63;;
64426;SDS011;50772;51.482;-0.580;2023-07-08T06:38:02;4.53;;;3.42;;
64426;SDS011;50772;51.482;-0.580;2023-07-08T06:40:28;5.55;;;3.20;;
64426;SDS011;50772;51.482;-0.580;2023-07-08T06:42:58;3.30;;;3.10;;
64426;SDS011;50772;51.482;-0.580;2023-07-08T06:45:26;6.95;;;3.50;;
64426;SDS011;50772;51.482;-0.580;2023-07-08T06:47:54;6.90;;;3.22;;
64426;SDS011;50772;51.482;-0.580;2023-07-08T06:50:19;4.28;;;2.95;;
64426;SDS011;50772;51.482;-0.580;2023-07-08T06:52:44;6.30;;;3.53;;
64426;SDS011;50772;51.482;-0.580;2023-07-08T06:55:10;3.35;;;3.15;;
64426;SDS011;50772;51.482;-0.580;2023-07-08T06:57:36;5.53;;;3.20;;
64426;SDS011;50772;51.482;-0.580;2023-07-08T07:00:03;3.45;;;3.25;;
64426;SDS011;50772;51.482;-0.580;2023-07-08T07:02:29;4.22;;;3.83;;
64426;SDS011;50772;51.482;-0.580;2023-07-08T07:04:54;3.67;;;3.38;;
64426;SDS011;50772;51.482;-0.580;2023-07-08T07:07:20;3.30;;;3.10;;
64426;SDS011;50772;51.482;-0.580;2023-07-08T07:09:45;3.92;;;3.63;;
64426;SDS011;50772;51.482;-0.580;2023-07-08T07:12:17;4.00;;;3.10;;
64426;SDS011;50772;51.482;-0.580;2023-07-08T07:14:42;3.15;;;2.95;;
64426;SDS011;50772;51.482;-0.580;2023-07-08T07:17:08;3.78;;;3.35;;
64426;SDS011;50772;51.482;-0.580;2023-07-08T07:19:33;3.55;;;3.22;;
64426;SDS011;50772;51.482;-0.580;2023-07-08T07:21:58;4.32;;;3.38;;
64426;SDS011;50772;51.482;-0.580;2023-07-08T07:24:24;8.57;;;3.50;;
64426;SDS011;50772;51.482;-0.580;2023-07-08T07:26:49;6.17;;;3.50;;
64426;SDS011;50772;51.482;-0.580;2023-07-08T07:29:16;3.90;;;3.35;;
64426;SDS011;50772;51.482;-0.580;2023-07-08T07:31:46;3.42;;;3.22;;
64426;SDS011;50772;51.482;-0.580;2023-07-08T07:34:11;4.07;;;3.63;;
64426;SDS011;50772;51.482;-0.580;2023-07-08T07:36:39;3.15;;;2.97;;
64426;SDS011;50772;51.482;-0.580;2023-07-08T07:39:09;5.93;;;4.38;;
64426;SDS011;50772;51.482;-0.580;2023-07-08T07:41:37;8.07;;;3.55;;
64426;SDS011;50772;51.482;-0.580;2023-07-08T07:44:03;3.47;;;3.28;;
64426;SDS011;50772;51.482;-0.580;2023-07-08T07:46:30;3.78;;;3.47;;
64426;SDS011;50772;51.482;-0.580;2023-07-08T07:48:59;3.72;;;3.42;;
64426;SDS011;50772;51.482;-0.580;2023-07-08T07:51:30;3.22;;;3.05;;
64426;SDS011;50772;51.482;-0.580;2023-07-08T07:53:55;3.22;;;2.88;;
64426;SDS011;50772;51.482;-0.580;2023-07-08T07:59:30;3.40;;;3.17;;
64426;SDS011;50772;51.482;-0.580;2023-07-08T08:01:56;3.13;;;2.88;;
64426;SDS011;50772;51.482;-0.580;2023-07-08T08:04:21;3.63;;;3.30;;
64426;SDS011;50772;51.482;-0.580;2023-07-08T08:06:52;4.95;;;3.60;;
64426;SDS011;50772;51.482;-0.580;2023-07-08T08:09:18;5.43;;;3.55;;
64426;SDS011;50772;51.482;-0.580;2023-07-08T08:11:43;7.73;;;3.60;;
64426;SDS011;50772;51.482;-0.580;2023-07-08T08:14:08;4.90;;;3.30;;
64426;SDS011;50772;51.482;-0.580;2023-07-08T08:16:34;4.95;;;3.17;;
64426;SDS011;50772;51.482;-0.580;2023-07-08T08:18:59;3.53;;;3.25;;
64426;SDS011;50772;51.482;-0.580;2023-07-08T08:21:24;3.20;;;3.00;;
64426;SDS011;50772;51.482;-0.580;2023-07-08T08:23:52;3.20;;;2.97;;
64426;SDS011;50772;51.482;-0.580;2023-07-08T08:26:17;3.58;;;2.85;;
64426;SDS011;50772;51.482;-0.580;2023-07-08T08:28:43;3.15;;;2.63;;
64426;SDS011;50772;51.482;-0.580;2023-07-08T08:31:08;3.47;;;3.20;;
64426;SDS011;50772;51.482;-0.580;2023-07-08T08:33:38;2.83;;;2.60;;
64426;SDS011;50772;51.482;-0.580;2023-07-08T08:36:03;2.88;;;2.70;;
64426;SDS011;50772;51.482;-0.580;2023-07-08T08:38:28;2.80;;;2.60;;
64426;SDS011;50772;51.482;-0.580;2023-07-08T08:40:56;3.22;;;2.67;;
64426;SDS011;50772;51.482;-0.580;2023-07-08T08:43:23;4.68;;;2.55;;
64426;SDS011;50772;51.482;-0.580;2023-07-08T08:45:57;4.57;;;2.88;;
64426;SDS011;50772;51.482;-0.580;2023-07-08T08:48:27;2.40;;;2.30;;
64426;SDS011;50772;51.482;-0.580;2023-07-08T08:50:57;2.30;;;2.20;;
64426;SDS011;50772;51.482;-0.580;2023-07-08T08:53:25;2.40;;;2.30;;
64426;SDS011;50772;51.482;-0.580;2023-07-08T08:55:55;1.83;;;1.73;;
64426;SDS011;50772;51.482;-0.580;2023-07-08T09:01:23;2.50;;;2.30;;
64426;SDS011;50772;51.482;-0.580;2023-07-08T09:03:52;2.38;;;2.20;;
64426;SDS011;50772;51.482;-0.580;2023-07-08T09:06:21;2.35;;;2.13;;
64426;SDS011;50772;51.482;-0.580;2023-07-08T09:08:48;2.30;;;2.20;;
64426;SDS011;50772;51.482;-0.580;2023-07-08T09:13:59;2.50;;;2.25;;
64426;SDS011;50772;51.482;-0.580;2023-07-08T09:21:21;2.77;;;1.90;;
64426;SDS011;50772;51.482;-0.580;2023-07-08T09:23:54;2.10;;;2.00;;
64426;SDS011;50772;51.482;-0.580;2023-07-08T09:26:34;4.22;;;2.00;;
64426;SDS011;50772;51.482;-0.580;2023-07-08T09:29:00;2.00;;;1.90;;
64426;SDS011;50772;51.482;-0.580;2023-07-08T09:31:30;2.28;;;2.08;;
64426;SDS011;50772;51.482;-0.580;2023-07-08T09:34:07;1.83;;;1.77;;
64426;SDS011;50772;51.482;-0.580;2023-07-08T09:36:41;1.83;;;1.73;;
64426;SDS011;50772;51.482;-0.580;2023-07-08T09:39:13;2.20;;;1.30;;
64426;SDS011;50772;51.482;-0.580;2023-07-08T09:41:42;1.65;;;1.58;;
64426;SDS011;50772;51.482;-0.580;2023-07-08T09:44:26;2.20;;;1.60;;
64426;SDS011;50772;51.482;-0.580;2023-07-08T09:46:52;1.80;;;1.70;;
64426;SDS011;50772;51.482;-0.580;2023-07-08T09:51:48;1.90;;;1.77;;
64426;SDS011;50772;51.482;-0.580;2023-07-08T09:54:18;1.50;;;1.50;;
64426;SDS011;50772;51.482;-0.580;2023-07-08T09:56:44;1.85;;;1.75;;
64426;SDS011;50772;51.482;-0.580;2023-07-08T09:59:14;2.38;;;2.17;;
64426;SDS011;50772;51.482;-0.580;2023-07-08T10:01:40;2.85;;;2.03;;
64426;SDS011;50772;51.482;-0.580;2023-07-08T10:04:06;2.10;;;1.90;;
64426;SDS011;50772;51.482;-0.580;2023-07-08T10:06:34;6.75;;;1.95;;
64426;SDS011;50772;51.482;-0.580;2023-07-08T10:09:02;1.90;;;1.80;;
64426;SDS011;50772;51.482;-0.580;2023-07-08T10:11:29;2.35;;;2.10;;
64426;SDS011;50772;51.482;-0.580;2023-07-08T10:16:51;1.75;;;1.63;;
64426;SDS011;50772;51.482;-0.580;2023-07-08T10:19:20;1.90;;;1.80;;
64426;SDS011;50772;51.482;-0.580;2023-07-08T10:22:51;2.00;;;1.90;;
64426;SDS011;50772;51.482;-0.580;2023-07-08T10:30:01;2.38;;;2.25;;
64426;SDS011;50772;51.482;-0.580;2023-07-08T10:35:20;2.38;;;2.20;;
64426;SDS011;50772;51.482;-0.580;2023-07-08T10:43:30;2.13;;;2.03;;
64426;SDS011;50772;51.482;-0.580;2023-07-08T10:51:37;3.00;;;2.30;;
64426;SDS011;50772;51.482;-0.580;2023-07-08T10:56:57;3.05;;;2.10;;
64426;SDS011;50772;51.482;-0.580;2023-07-08T10:59:48;2.45;;;2.35;;
64426;SDS011;50772;51.482;-0.580;2023-07-08T11:02:20;2.58;;;2.35;;
64426;SDS011;50772;51.482;-0.580;2023-07-08T11:07:19;3.45;;;2.75;;
64426;SDS011;50772;51.482;-0.580;2023-07-08T11:10:05;5.65;;;2.70;;
64426;SDS011;50772;51.482;-0.580;2023-07-08T11:12:51;2.75;;;2.53;;
64426;SDS011;50772;51.482;-0.580;2023-07-08T11:26:30;4.70;;;2.60;;
64426;SDS011;50772;51.482;-0.580;2023-07-08T11:35:27;3.47;;;2.72;;
64426;SDS011;50772;51.482;-0.580;2023-07-08T11:40:30;6.80;;;2.60;;
64426;SDS011;50772;51.482;-0.580;2023-07-08T11:43:05;3.10;;;2.80;;
64426;SDS011;50772;51.482;-0.580;2023-07-08T11:45:33;2.97;;;2.78;;
64426;SDS011;50772;51.482;-0.580;2023-07-08T11:50:54;3.05;;;2.85;;
64426;SDS011;50772;51.482;-0.580;2023-07-08T11:56:18;2.95;;;2.72;;
64426;SDS011;50772;51.482;-0.580;2023-07-08T12:01:54;3.30;;;3.00;;
64426;SDS011;50772;51.482;-0.580;2023-07-08T12:04:55;3.05;;;2.85;;
64426;SDS011;50772;51.482;-0.580;2023-07-08T12:07:52;3.33;;;2.90;;
64426;SDS011;50772;51.482;-0.580;2023-07-08T12:10:37;4.15;;;3.40;;
64426;SDS011;50772;51.482;-0.580;2023-07-08T12:13:18;4.00;;;3.70;;
64426;SDS011;50772;51.482;-0.580;2023-07-08T12:15:43;3.20;;;3.00;;
64426;SDS011;50772;51.482;-0.580;2023-07-08T12:18:22;3.42;;;3.13;;
64426;SDS011;50772;51.482;-0.580;2023-07-08T12:20:56;5.18;;;3.10;;
64426;SDS011;50772;51.482;-0.580;2023-07-08T12:23:28;3.90;;;3.03;;
64426;SDS011;50772;51.482;-0.580;2023-07-08T12:25:57;3.60;;;3.25;;
64426;SDS011;50772;51.482;-0.580;2023-07-08T12:31:28;4.00;;;2.58;;
64426;SDS011;50772;51.482;-0.580;2023-07-08T12:34:21;3.88;;;2.55;;
64426;SDS011;50772;51.482;-0.580;2023-07-08T12:36:58;3.20;;;2.33;;
64426;SDS011;50772;51.482;-0.580;2023-07-08T12:39:47;3.45;;;2.22;;
64426;SDS011;50772;51.482;-0.580;2023-07-08T12:42:16;3.93;;;2.70;;
64426;SDS011;50772;51.482;-0.580;2023-07-08T12:44:45;4.88;;;2.53;;
64426;SDS011;50772;51.482;-0.580;2023-07-08T12:47:20;2.80;;;2.60;;
64426;SDS011;50772;51.482;-0.580;2023-07-08T12:49:48;4.68;;;2.38;;
64426;SDS011;50772;51.482;-0.580;2023-07-08T12:52:21;2.75;;;2.55;;
64426;SDS011;50772;51.482;-0.580;2023-07-08T12:55:10;2.45;;;2.25;;
64426;SDS011;50772;51.482;-0.580;2023-07-08T12:57:38;2.80;;;2.60;;
64426;SDS011;50772;51.482;-0.580;2023-07-08T13:00:16;4.28;;;2.65;;
64426;SDS011;50772;51.482;-0.580;2023-07-08T13:06:17;5.40;;;2.45;;
64426;SDS011;50772;51.482;-0.580;2023-07-08T13:09:14;2.40;;;2.20;;
64426;SDS011;50772;51.482;-0.580;2023-07-08T13:11:38;3.20;;;2.50;;
64426;SDS011;50772;51.482;-0.580;2023-07-08T13:14:21;2.53;;;2.33;;
64426;SDS011;50772;51.482;-0.580;2023-07-08T13:16:57;4.38;;;2.50;;
64426;SDS011;50772;51.482;-0.580;2023-07-08T13:22:21;2.45;;;2.35;;
64426;SDS011;50772;51.482;-0.580;2023-07-08T13:25:31;2.83;;;2.60;;
64426;SDS011;50772;51.482;-0.580;2023-07-08T13:31:19;2.80;;;2.40;;
64426;SDS011;50772;51.482;-0.580;2023-07-08T13:36:58;2.50;;;2.30;;
64426;SDS011;50772;51.482;-0.580;2023-07-08T13:39:43;2.30;;;2.17;;
64426;SDS011;50772;51.482;-0.580;2023-07-08T13:42:15;3.65;;;2.33;;
64426;SDS011;50772;51.482;-0.580;2023-07-08T13:44:46;2.60;;;1.90;;
64426;SDS011;50772;51.482;-0.580;2023-07-08T13:47:32;2.42;;;2.33;;
64426;SDS011;50772;51.482;-0.580;2023-07-08T13:50:01;2.13;;;2.03;;
64426;SDS011;50772;51.482;-0.580;2023-07-08T13:55:29;2.15;;;2.05;;
64426;SDS011;50772;51.482;-0.580;2023-07-08T13:57:58;2.25;;;2.15;;
64426;SDS011;50772;51.482;-0.580;2023-07-08T14:00:24;2.38;;;2.17;;
64426;SDS011;50772;51.482;-0.580;2023-07-08T14:02:53;6.97;;;2.20;;
64426;SDS011;50772;51.482;-0.580;2023-07-08T14:05:23;2.50;;;2.33;;
64426;SDS011;50772;51.482;-0.580;2023-07-08T14:08:11;2.28;;;2.10;;
64426;SDS011;50772;51.482;-0.580;2023-07-08T14:10:45;2.28;;;2.17;;
64426;SDS011;50772;51.482;-0.580;2023-07-08T14:13:13;2.38;;;2.20;;
64426;SDS011;50772;51.482;-0.580;2023-07-08T14:15:51;2.53;;;2.33;;
64426;SDS011;50772;51.482;-0.580;2023-07-08T14:18:16;3.17;;;2.60;;
64426;SDS011;50772;51.482;-0.580;2023-07-08T14:20:51;2.53;;;2.33;;
64426;SDS011;50772;51.482;-0.580;2023-07-08T14:23:19;5.13;;;2.42;;
64426;SDS011;50772;51.482;-0.580;2023-07-08T14:25:45;2.30;;;2.10;;
64426;SDS011;50772;51.482;-0.580;2023-07-08T14:28:13;2.72;;;2.20;;
64426;SDS011;50772;51.482;-0.580;2023-07-08T14:30:40;2.95;;;2.00;;
64426;SDS011;50772;51.482;-0.580;2023-07-08T14:33:14;2.65;;;2.42;;
64426;SDS011;50772;51.482;-0.580;2023-07-08T14:35:40;2.72;;;2.53;;
64426;SDS011;50772;51.482;-0.580;2023-07-08T14:38:12;2.78;;;2.33;;
64426;SDS011;50772;51.482;-0.580;2023-07-08T14:40:47;2.65;;;2.45;;
64426;SDS011;50772;51.482;-0.580;2023-07-08T14:43:16;2.42;;;2.22;;
64426;SDS011;50772;51.482;-0.580;2023-07-08T14:45:48;2.53;;;2.30;;
64426;SDS011;50772;51.482;-0.580;2023-07-08T14:48:14;3.17;;;2.45;;
64426;SDS011;50772;51.482;-0.580;2023-07-08T14:50:42;2.47;;;2.28;;
64426;SDS011;50772;51.482;-0.580;2023-07-08T14:53:13;3.43;;;2.50;;
64426;SDS011;50772;51.482;-0.580;2023-07-08T14:55:44;2.40;;;2.30;;
64426;SDS011;50772;51.482;-0.580;2023-07-08T14:58:20;2.50;;;2.30;;
64426;SDS011;50772;51.482;-0.580;2023-07-08T15:00:48;2.50;;;2.30;;
64426;SDS011;50772;51.482;-0.580;2023-07-08T15:03:14;2.28;;;2.17;;
64426;SDS011;50772;51.482;-0.580;2023-07-08T15:05:39;2.75;;;2.38;;
64426;SDS011;50772;51.482;-0.580;2023-07-08T15:08:12;3.03;;;2.40;;
64426;SDS011;50772;51.482;-0.580;2023-07-08T15:10:58;2.35;;;2.20;;
64426;SDS011;50772;51.482;-0.580;2023-07-08T15:13:34;2.50;;;2.40;;
64426;SDS011;50772;51.482;-0.580;2023-07-08T15:16:00;2.55;;;2.40;;
64426;SDS011;50772;51.482;-0.580;2023-07-08T15:18:25;3.90;;;2.40;;
64426;SDS011;50772;51.482;-0.580;2023-07-08T15:20:51;2.60;;;2.50;;
64426;SDS011;50772;51.482;-0.580;2023-07-08T15:23:16;3.10;;;2.33;;
64426;SDS011;50772;51.482;-0.580;2023-07-08T15:25:44;2.97;;;2.47;;
64426;SDS011;50772;51.482;-0.580;2023-07-08T15:28:33;2.45;;;2.30;;
64426;SDS011;50772;51.482;-0.580;2023-07-08T15:30:55;3.97;;;2.33;;
64426;SDS011;50772;51.482;-0.580;2023-07-08T15:33:21;2.20;;;2.10;;
64426;SDS011;50772;51.482;-0.580;2023-07-08T15:35:48;2.42;;;2.33;;
64426;SDS011;50772;51.482;-0.580;2023-07-08T15:38:19;2.57;;;2.37;;
64426;SDS011;50772;51.482;-0.580;2023-07-08T15:40:44;2.55;;;2.35;;
64426;SDS011;50772;51.482;-0.580;2023-07-08T15:43:12;3.03;;;2.27;;
64426;SDS011;50772;51.482;-0.580;2023-07-08T15:45:38;2.08;;;1.98;;
64426;SDS011;50772;51.482;-0.580;2023-07-08T15:48:05;2.55;;;2.42;;
64426;SDS011;50772;51.482;-0.580;2023-07-08T15:50:30;2.40;;;2.30;;
64426;SDS011;50772;51.482;-0.580;2023-07-08T15:52:56;2.90;;;2.60;;
64426;SDS011;50772;51.482;-0.580;2023-07-08T15:55:31;2.25;;;2.15;;
64426;SDS011;50772;51.482;-0.580;2023-07-08T15:58:01;3.35;;;2.22;;
64426;SDS011;50772;51.482;-0.580;2023-07-08T16:00:31;2.92;;;2.33;;
64426;SDS011;50772;51.482;-0.580;2023-07-08T16:03:00;2.38;;;2.25;;
64426;SDS011;50772;51.482;-0.580;2023-07-08T16:05:27;2.88;;;2.40;;
64426;SDS011;50772;51.482;-0.580;2023-07-08T16:07:53;2.50;;;2.30;;
64426;SDS011;50772;51.482;-0.580;2023-07-08T16:10:22;3.47;;;2.20;;
64426;SDS011;50772;51.482;-0.580;2023-07-08T16:12:50;2.65;;;2.55;;
64426;SDS011;50772;51.482;-0.580;2023-07-08T16:15:24;2.20;;;2.10;;
64426;SDS011;50772;51.482;-0.580;2023-07-08T16:17:51;2.35;;;2.25;;
64426;SDS011;50772;51.482;-0.580;2023-07-08T16:20:20;2.13;;;2.03;;
64426;SDS011;50772;51.482;-0.580;2023-07-08T16:22:46;2.28;;;2.08;;
64426;SDS011;50772;51.482;-0.580;2023-07-08T16:25:12;2.28;;;2.15;;
64426;SDS011;50772;51.482;-0.580;2023-07-08T16:27:38;2.30;;;2.20;;